Time;durP1;ratioP1;P1;durP2;ratioP2;P2;SDS_P1;SDS_P2;PMS_P1;PMS_P2;Temp;Humidity;BMP_temperature;BMP_pressure;BME280_temperature;BME280_humidity;BME280_pressure;Samples;Min_cycle;Max_cycle;Signal;HPM_P1;HPM_P2
2022/09/02 00:01:42;;;;;;;11.70;5.47;;;12.70;99.90;;;;;;5091699;28;20016;-50
2022/09/02 00:04:20;;;;;;;6.25;5.47;;;12.60;99.90;;;;;;5079815;28;20024;-51
2022/09/02 00:06:47;;;;;;;5.80;5.00;;;12.60;99.90;;;;;;5071305;28;20451;-51
2022/09/02 00:09:17;;;;;;;5.82;5.32;;;12.70;99.90;;;;;;5071633;28;20402;-52
2022/09/02 00:11:44;;;;;;;9.68;5.78;;;12.70;99.90;;;;;;5071687;28;20036;-51
2022/09/02 00:14:15;;;;;;;7.90;6.35;;;12.70;99.90;;;;;;5071495;28;20406;-51
2022/09/02 00:16:43;;;;;;;5.97;5.20;;;12.70;99.90;;;;;;5071352;28;20024;-52
2022/09/02 00:19:09;;;;;;;10.27;4.88;;;12.80;99.90;;;;;;5072247;28;20037;-51
2022/09/02 00:21:35;;;;;;;10.63;5.35;;;12.80;99.90;;;;;;5091344;28;20047;-52
2022/09/02 00:24:03;;;;;;;7.75;5.25;;;12.80;99.90;;;;;;5098015;28;20032;-52
2022/09/02 00:26:30;;;;;;;10.30;6.32;;;12.80;99.90;;;;;;5098120;28;20024;-52
2022/09/02 00:28:56;;;;;;;7.45;5.93;;;12.80;99.90;;;;;;5098317;28;20033;-50
2022/09/02 00:31:23;;;;;;;7.70;5.35;;;12.80;99.90;;;;;;5097912;28;20016;-51
2022/09/02 00:33:50;;;;;;;6.72;5.60;;;12.90;99.90;;;;;;5097991;28;20023;-51
2022/09/02 00:36:16;;;;;;;6.93;5.03;;;12.80;99.90;;;;;;5098088;28;20031;-51
2022/09/02 00:38:42;;;;;;;12.18;4.82;;;12.80;99.90;;;;;;5096426;28;20032;-54
2022/09/02 00:41:10;;;;;;;6.78;4.90;;;12.90;99.90;;;;;;5098128;28;20024;-55
2022/09/02 00:43:54;;;;;;;6.28;5.68;;;12.90;99.90;;;;;;5097936;28;20107;-54
2022/09/02 00:46:23;;;;;;;6.28;5.68;;;12.80;99.90;;;;;;5098018;28;20027;-54
2022/09/02 00:49:25;;;;;;;5.97;5.47;;;12.80;99.90;;;;;;5098211;28;20024;-53
2022/09/02 00:51:57;;;;;;;13.55;6.03;;;12.80;99.90;;;;;;5094789;28;20479;-53
2022/09/02 00:54:25;;;;;;;8.63;5.90;;;12.80;99.90;;;;;;5098030;28;20047;-55
2022/09/02 00:56:51;;;;;;;8.15;5.63;;;12.80;99.90;;;;;;5097951;28;20024;-53
2022/09/02 00:59:37;;;;;;;7.90;5.65;;;12.70;99.90;;;;;;5097807;28;20122;-51
2022/09/02 01:02:02;;;;;;;14.75;6.05;;;12.70;99.90;;;;;;5096574;28;20028;-53
2022/09/02 01:04:28;;;;;;;6.97;5.97;;;12.70;99.90;;;;;;5093071;28;20032;-51
2022/09/02 01:06:54;;;;;;;7.03;6.00;;;12.70;99.90;;;;;;5077443;28;20013;-51
2022/09/02 01:09:21;;;;;;;9.00;6.50;;;12.70;99.90;;;;;;5076290;28;20036;-52
2022/09/02 01:11:54;;;;;;;9.25;5.88;;;12.70;99.90;;;;;;5077730;28;20448;-51
2022/09/02 01:14:20;;;;;;;10.35;5.72;;;12.70;99.90;;;;;;5089291;28;20028;-51
2022/09/02 01:16:50;;;;;;;5.95;5.35;;;12.70;99.90;;;;;;5097886;28;20510;-55
2022/09/02 01:19:26;;;;;;;7.10;6.30;;;12.70;99.90;;;;;;5097688;28;20028;-51
2022/09/02 01:21:54;;;;;;;7.80;6.05;;;12.70;99.90;;;;;;5097800;28;20020;-54
2022/09/02 01:24:22;;;;;;;6.68;5.88;;;12.70;99.90;;;;;;5097644;28;20016;-51
2022/09/02 01:26:51;;;;;;;9.35;5.88;;;12.60;99.90;;;;;;5097821;28;20026;-52
2022/09/02 01:29:17;;;;;;;7.22;5.35;;;12.60;99.90;;;;;;5097418;28;20085;-49
2022/09/02 01:31:43;;;;;;;5.90;5.25;;;12.60;99.90;;;;;;5097649;28;20028;-52
2022/09/02 01:34:10;;;;;;;6.63;5.13;;;12.60;99.90;;;;;;5095439;28;20028;-50
2022/09/02 01:36:40;;;;;;;7.68;5.28;;;12.50;99.90;;;;;;5092606;28;20020;-53
2022/09/02 01:39:07;;;;;;;5.63;5.07;;;12.50;99.90;;;;;;5094381;28;20028;-51
2022/09/02 01:41:33;;;;;;;10.23;5.45;;;12.50;99.90;;;;;;5094323;28;20368;-54
2022/09/02 01:43:59;;;;;;;5.68;4.72;;;12.50;99.90;;;;;;5094283;28;20026;-52
2022/09/02 01:46:25;;;;;;;10.73;4.90;;;12.40;99.90;;;;;;5094202;28;20344;-53
2022/09/02 01:48:50;;;;;;;9.50;5.28;;;12.50;99.90;;;;;;5094244;28;20031;-51
2022/09/02 01:51:19;;;;;;;13.13;5.43;;;12.50;99.90;;;;;;5084921;28;20086;-51
2022/09/02 01:53:45;;;;;;;5.13;4.10;;;12.40;99.90;;;;;;5073824;28;20036;-51
2022/09/02 01:56:11;;;;;;;5.22;4.43;;;12.40;99.90;;;;;;5073825;28;20491;-54
2022/09/02 01:58:38;;;;;;;9.77;4.13;;;12.30;99.90;;;;;;5073560;28;20078;-54
2022/09/02 02:01:03;;;;;;;9.45;4.45;;;12.30;99.90;;;;;;5073889;28;20028;-52
2022/09/02 02:03:29;;;;;;;6.22;4.50;;;12.30;99.90;;;;;;5073686;28;20383;-53
2022/09/02 02:05:55;;;;;;;5.07;4.57;;;12.20;99.90;;;;;;5077437;28;20073;-53
2022/09/02 02:08:21;;;;;;;8.82;4.22;;;12.30;99.90;;;;;;5093724;28;20051;-52
2022/09/02 02:10:48;;;;;;;4.70;4.25;;;12.30;99.90;;;;;;5093943;28;20012;-51
2022/09/02 02:13:15;;;;;;;4.80;4.28;;;12.30;99.90;;;;;;5092258;28;20069;-54
2022/09/02 02:15:42;;;;;;;6.35;4.18;;;12.20;99.90;;;;;;5093819;28;20024;-52
2022/09/02 02:18:08;;;;;;;4.35;3.95;;;12.20;99.90;;;;;;5093574;28;20028;-52
2022/09/02 02:20:35;;;;;;;4.10;3.70;;;12.20;99.90;;;;;;5090250;28;20037;-51
2022/09/02 02:23:02;;;;;;;8.63;3.85;;;12.20;99.90;;;;;;5073286;28;20040;-54
2022/09/02 02:25:28;;;;;;;6.68;4.05;;;12.20;99.90;;;;;;5071854;28;20471;-52
2022/09/02 02:27:54;;;;;;;7.07;3.97;;;12.20;99.90;;;;;;5073331;28;20024;-54
2022/09/02 02:30:20;;;;;;;10.05;4.35;;;12.10;99.90;;;;;;5073091;28;20029;-52
2022/09/02 02:32:47;;;;;;;4.65;4.25;;;12.10;99.90;;;;;;5073168;28;20025;-52
2022/09/02 02:35:17;;;;;;;9.73;4.85;;;12.10;99.90;;;;;;5075125;28;20060;-53
2022/09/02 02:37:44;;;;;;;7.82;4.63;;;12.10;99.90;;;;;;5093276;28;20034;-56
2022/09/02 02:40:11;;;;;;;6.88;4.13;;;12.10;99.90;;;;;;5093175;28;20413;-52
2022/09/02 02:42:37;;;;;;;7.78;4.25;;;12.10;99.90;;;;;;5093183;28;20048;-50
2022/09/02 02:45:07;;;;;;;10.02;4.20;;;12.10;99.90;;;;;;5092424;28;20020;-52
2022/09/02 02:47:34;;;;;;;4.30;4.00;;;12.00;99.90;;;;;;5089501;28;20024;-53
2022/09/02 02:49:59;;;;;;;5.18;4.35;;;12.00;99.90;;;;;;5090263;28;20020;-52
2022/09/02 02:52:26;;;;;;;9.15;4.32;;;12.00;99.90;;;;;;5092813;28;20046;-53
2022/09/02 02:54:51;;;;;;;6.03;5.10;;;12.00;99.90;;;;;;5093000;28;20038;-51
2022/09/02 02:57:17;;;;;;;9.35;4.57;;;12.00;99.90;;;;;;5092857;28;20463;-55
2022/09/02 02:59:43;;;;;;;6.60;4.43;;;11.90;99.90;;;;;;5092248;28;20058;-53
2022/09/02 03:02:09;;;;;;;6.10;4.15;;;11.90;99.90;;;;;;5092828;28;20020;-54
2022/09/02 03:04:36;;;;;;;6.53;4.35;;;11.90;99.90;;;;;;5083885;28;20111;-52
2022/09/02 03:07:02;;;;;;;6.53;4.05;;;11.90;99.90;;;;;;5072174;28;20033;-52
2022/09/02 03:09:28;;;;;;;7.70;4.63;;;11.90;99.90;;;;;;5072142;28;20352;-53
2022/09/02 03:11:53;;;;;;;24.27;4.78;;;11.90;99.90;;;;;;5072600;28;20037;-52
2022/09/02 03:14:19;;;;;;;5.78;4.68;;;11.90;99.90;;;;;;5072155;28;20051;-51
2022/09/02 03:16:45;;;;;;;6.75;4.95;;;11.90;99.90;;;;;;5070902;28;20066;-54
2022/09/02 03:19:12;;;;;;;12.82;4.32;;;11.80;99.90;;;;;;5072241;28;20491;-55
2022/09/02 03:21:39;;;;;;;5.15;4.43;;;11.80;99.90;;;;;;5072004;28;20021;-54
2022/09/02 03:24:06;;;;;;;12.07;6.13;;;11.80;99.90;;;;;;5071968;28;20035;-52
2022/09/02 03:26:31;;;;;;;8.60;4.93;;;11.80;99.90;;;;;;5071712;28;20107;-53
2022/09/02 03:28:58;;;;;;;4.55;4.15;;;11.80;99.90;;;;;;5072163;28;20146;-54
2022/09/02 03:31:25;;;;;;;6.70;6.00;;;11.80;99.90;;;;;;5071849;28;20428;-52
2022/09/02 03:33:52;;;;;;;5.25;4.45;;;11.70;99.90;;;;;;5078742;28;20426;-52
2022/09/02 03:36:29;;;;;;;14.52;4.47;;;11.70;99.90;;;;;;5092071;28;20033;-52
2022/09/02 03:38:55;;;;;;;6.38;4.20;;;11.70;99.90;;;;;;5092009;28;20028;-51
2022/09/02 03:41:21;;;;;;;10.55;4.25;;;11.70;99.90;;;;;;5092107;28;20407;-51
2022/09/02 03:43:47;;;;;;;8.23;4.25;;;11.70;99.90;;;;;;5092069;28;20028;-54
2022/09/02 03:46:13;;;;;;;8.18;4.45;;;11.70;99.90;;;;;;5092072;28;20024;-52
2022/09/02 03:48:39;;;;;;;9.70;4.30;;;11.70;99.90;;;;;;5091551;28;20115;-51
2022/09/02 03:51:06;;;;;;;8.45;5.00;;;11.70;99.90;;;;;;5091911;28;20114;-52
2022/09/02 03:53:33;;;;;;;6.65;4.18;;;11.70;99.90;;;;;;5091732;28;20028;-52
2022/09/02 03:56:14;;;;;;;7.80;4.70;;;11.60;99.90;;;;;;5091934;28;20020;-52
2022/09/02 03:58:41;;;;;;;10.15;4.55;;;11.60;99.90;;;;;;5091145;28;20642;-51
2022/09/02 04:01:11;;;;;;;6.72;4.50;;;11.60;99.90;;;;;;5091757;28;20073;-51
2022/09/02 04:03:37;;;;;;;13.43;4.28;;;11.60;99.90;;;;;;5082121;28;20021;-52
2022/09/02 04:06:02;;;;;;;4.97;4.10;;;11.50;99.90;;;;;;5071668;28;20021;-51
2022/09/02 04:08:28;;;;;;;9.85;4.45;;;11.50;99.90;;;;;;5071145;28;20064;-51
2022/09/02 04:10:55;;;;;;;7.63;4.18;;;11.50;99.90;;;;;;5071622;28;20048;-53
2022/09/02 04:13:21;;;;;;;4.68;4.22;;;11.50;99.90;;;;;;5071493;28;20031;-51
2022/09/02 04:15:48;;;;;;;8.68;4.35;;;11.50;99.90;;;;;;5071384;28;20625;-51
2022/09/02 04:18:16;;;;;;;10.88;4.28;;;11.50;99.90;;;;;;5071424;28;20029;-54
2022/09/02 04:20:42;;;;;;;10.35;5.63;;;11.40;99.90;;;;;;5071510;28;20050;-51
2022/09/02 04:23:08;;;;;;;10.05;4.25;;;11.40;99.90;;;;;;5071395;28;20020;-51
2022/09/02 04:25:39;;;;;;;5.60;4.20;;;11.40;99.90;;;;;;5071230;28;20027;-51
2022/09/02 04:28:05;;;;;;;8.68;3.88;;;11.40;99.90;;;;;;5071426;28;20017;-51
2022/09/02 04:30:30;;;;;;;9.77;3.90;;;11.40;99.90;;;;;;5071097;28;20069;-50
2022/09/02 04:32:56;;;;;;;8.63;3.72;;;11.40;99.90;;;;;;5078636;28;20091;-54
2022/09/02 04:35:22;;;;;;;5.22;3.85;;;11.40;99.90;;;;;;5091063;28;20029;-51
2022/09/02 04:37:47;;;;;;;3.42;3.13;;;11.30;99.90;;;;;;5091045;28;20020;-52
2022/09/02 04:40:14;;;;;;;5.85;3.58;;;11.30;99.90;;;;;;5091257;28;20727;-54
2022/09/02 04:42:40;;;;;;;5.22;3.50;;;11.30;99.90;;;;;;5091517;28;20028;-55
2022/09/02 04:45:06;;;;;;;3.85;3.40;;;11.40;99.90;;;;;;5091270;28;20027;-52
2022/09/02 04:47:32;;;;;;;6.10;3.88;;;11.30;99.90;;;;;;5076148;28;20077;-54
2022/09/02 04:49:58;;;;;;;5.97;3.58;;;11.30;99.90;;;;;;5069865;28;20524;-54
2022/09/02 04:52:24;;;;;;;7.68;3.47;;;11.30;99.90;;;;;;5070797;28;20163;-54
2022/09/02 04:54:50;;;;;;;2.95;2.70;;;11.40;99.90;;;;;;5071133;28;20400;-52
2022/09/02 04:57:16;;;;;;;4.15;3.08;;;11.40;99.90;;;;;;5071006;28;20028;-54
2022/09/02 04:59:42;;;;;;;5.00;2.97;;;11.40;99.90;;;;;;5067646;28;20052;-53
2022/09/02 05:02:07;;;;;;;7.95;2.88;;;11.50;99.90;;;;;;5070788;28;20028;-53
2022/09/02 05:04:34;;;;;;;4.70;3.15;;;11.50;99.90;;;;;;5084562;28;20053;-53
2022/09/02 05:07:00;;;;;;;11.50;2.67;;;11.50;99.90;;;;;;5090680;28;20118;-52
2022/09/02 05:09:28;;;;;;;5.82;3.00;;;11.60;99.90;;;;;;5084303;28;20020;-54
2022/09/02 05:11:57;;;;;;;14.88;3.63;;;11.60;99.90;;;;;;5074730;28;20513;-52
2022/09/02 05:14:24;;;;;;;4.05;2.83;;;11.60;99.90;;;;;;5074284;28;20060;-55
2022/09/02 05:16:53;;;;;;;4.90;2.95;;;11.60;99.90;;;;;;5087616;28;20099;-51
2022/09/02 05:19:22;;;;;;;18.48;2.75;;;11.70;99.90;;;;;;5094580;28;20032;-49
2022/09/02 05:21:50;;;;;;;7.78;2.97;;;11.70;99.90;;;;;;5089338;28;20095;-52
2022/09/02 05:24:16;;;;;;;3.05;2.30;;;11.70;99.90;;;;;;5077389;28;20035;-52
2022/09/02 05:26:43;;;;;;;9.75;3.50;;;11.80;99.90;;;;;;5094687;28;20028;-51
2022/09/02 05:29:11;;;;;;;3.72;2.80;;;11.80;99.90;;;;;;5094713;28;20066;-53
2022/09/02 05:31:37;;;;;;;6.45;2.60;;;11.90;99.90;;;;;;5080462;28;20051;-52
2022/09/02 05:34:03;;;;;;;9.82;3.08;;;11.90;99.90;;;;;;5074389;28;20094;-53
2022/09/02 05:36:31;;;;;;;9.60;2.97;;;11.90;99.90;;;;;;5075162;28;20040;-51
2022/09/02 05:38:58;;;;;;;7.32;2.75;;;11.90;99.90;;;;;;5074028;28;20031;-51
2022/09/02 05:41:24;;;;;;;8.15;2.90;;;12.00;99.90;;;;;;5073953;28;20483;-50
2022/09/02 05:43:52;;;;;;;10.52;3.65;;;11.90;99.90;;;;;;5074060;28;20451;-52
2022/09/02 05:46:22;;;;;;;3.90;2.92;;;12.00;99.90;;;;;;5073980;28;20032;-51
2022/09/02 05:51:40;;;;;;;3.88;2.90;;;12.10;99.90;;;;;;5074039;28;20078;-51
2022/09/02 05:54:07;;;;;;;5.47;3.03;;;12.20;99.90;;;;;;5074001;28;20073;-51
2022/09/02 05:56:33;;;;;;;8.20;4.03;;;12.20;99.90;;;;;;5073662;28;20426;-53
2022/09/02 05:58:59;;;;;;;3.90;2.65;;;12.30;99.90;;;;;;5073878;28;20024;-52
2022/09/02 06:01:25;;;;;;;5.18;2.65;;;12.30;99.90;;;;;;5086736;28;20036;-52
2022/09/02 06:03:51;;;;;;;3.00;2.80;;;12.40;99.90;;;;;;5093922;28;20043;-51
2022/09/02 06:06:18;;;;;;;5.15;4.28;;;12.40;99.90;;;;;;5093732;28;20024;-53
2022/09/02 06:08:44;;;;;;;2.80;2.50;;;12.50;99.90;;;;;;5092736;28;20048;-53
2022/09/02 06:11:12;;;;;;;4.15;2.70;;;12.50;99.90;;;;;;5093774;28;20048;-54
2022/09/02 06:13:40;;;;;;;11.27;2.45;;;12.60;99.90;;;;;;5093329;28;20028;-53
2022/09/02 06:16:10;;;;;;;10.52;4.95;;;12.70;99.90;;;;;;5091624;28;20039;-53
2022/09/02 06:18:36;;;;;;;3.67;3.15;;;12.70;99.90;;;;;;5091169;28;20026;-51
2022/09/02 06:21:04;;;;;;;3.97;2.90;;;12.80;99.90;;;;;;5070760;28;20395;-50
2022/09/02 06:23:30;;;;;;;9.07;2.55;;;12.90;99.90;;;;;;5072914;28;20029;-51
2022/09/02 06:25:56;;;;;;;3.45;2.55;;;12.90;99.90;;;;;;5073171;28;20025;-50
2022/09/02 06:28:21;;;;;;;3.22;2.92;;;12.90;99.90;;;;;;5080201;28;20490;-51
2022/09/02 06:30:47;;;;;;;4.82;3.22;;;13.00;99.90;;;;;;5093519;28;20536;-52
2022/09/02 06:33:13;;;;;;;12.00;2.53;;;13.10;99.90;;;;;;5093365;28;20414;-52
2022/09/02 06:35:42;;;;;;;4.45;3.10;;;13.20;99.90;;;;;;5093189;28;20020;-51
2022/09/02 06:38:09;;;;;;;4.45;2.78;;;13.30;99.90;;;;;;5093458;28;20016;-52
2022/09/02 06:40:36;;;;;;;6.25;2.65;;;13.40;99.90;;;;;;5093022;28;20053;-51
2022/09/02 06:43:02;;;;;;;6.22;3.10;;;13.40;99.90;;;;;;5093122;28;20662;-51
2022/09/02 06:45:30;;;;;;;7.90;3.35;;;13.40;99.90;;;;;;5093184;28;20062;-51
2022/09/02 06:47:55;;;;;;;3.10;2.63;;;13.50;99.90;;;;;;5092568;28;20008;-52
2022/09/02 06:50:22;;;;;;;3.45;2.67;;;13.60;99.90;;;;;;5092412;28;20073;-52
2022/09/02 06:52:47;;;;;;;2.60;2.40;;;13.70;99.90;;;;;;5092513;28;20028;-51
2022/09/02 06:55:15;;;;;;;4.50;2.75;;;13.80;99.90;;;;;;5091974;28;20038;-51
2022/09/02 06:57:40;;;;;;;3.55;2.58;;;13.90;99.90;;;;;;5085838;28;20337;-55
2022/09/02 07:00:09;;;;;;;4.15;2.53;;;13.90;99.90;;;;;;5071943;28;20031;-53
2022/09/02 07:02:35;;;;;;;6.50;2.20;;;13.90;99.90;;;;;;5070712;28;20395;-52
2022/09/02 07:05:14;;;;;;;5.05;2.60;;;13.90;99.90;;;;;;5072536;28;20004;-55
2022/09/02 07:07:41;;;;;;;5.45;3.30;;;13.90;99.90;;;;;;5072291;28;20089;-53
2022/09/02 07:10:09;;;;;;;2.65;2.40;;;14.00;99.90;;;;;;5072500;28;20111;-52
2022/09/02 07:12:37;;;;;;;3.50;2.38;;;14.10;99.90;;;;;;5072230;28;20124;-54
2022/09/02 07:15:03;;;;;;;2.90;2.20;;;14.10;99.90;;;;;;5072284;28;20058;-55
2022/09/02 07:17:29;;;;;;;5.75;2.63;;;14.10;99.90;;;;;;5071992;28;20057;-51
2022/09/02 07:19:58;;;;;;;7.78;2.60;;;14.20;99.90;;;;;;5070825;28;20149;-53
2022/09/02 07:22:24;;;;;;;7.93;2.50;;;14.30;99.90;;;;;;5070999;28;20013;-52
2022/09/02 07:24:50;;;;;;;5.43;2.65;;;14.40;99.90;;;;;;5070953;28;20017;-53
2022/09/02 07:27:16;;;;;;;3.15;2.38;;;14.50;99.90;;;;;;5076006;28;20153;-54
2022/09/02 07:29:43;;;;;;;6.20;3.33;;;14.70;99.90;;;;;;5091072;28;20494;-52
2022/09/02 07:32:09;;;;;;;8.18;2.90;;;14.60;99.90;;;;;;5090314;28;20762;-54
2022/09/02 07:34:35;;;;;;;9.73;2.80;;;14.70;99.90;;;;;;5090819;28;20029;-53
2022/09/02 07:37:01;;;;;;;8.65;3.05;;;14.80;99.90;;;;;;5090977;28;20031;-53
2022/09/02 07:39:26;;;;;;;5.20;2.47;;;14.80;99.90;;;;;;5090742;28;20500;-51
2022/09/02 07:41:52;;;;;;;5.22;2.85;;;15.00;99.90;;;;;;5084928;28;20020;-52
2022/09/02 07:44:19;;;;;;;5.95;2.40;;;15.10;99.90;;;;;;5070460;28;20028;-54
2022/09/02 07:46:45;;;;;;;6.47;2.58;;;15.10;99.90;;;;;;5070561;28;20048;-54
2022/09/02 07:49:12;;;;;;;4.85;2.28;;;15.20;99.90;;;;;;5069073;28;20051;-53
2022/09/02 07:51:41;;;;;;;5.78;2.38;;;15.20;99.90;;;;;;5070420;28;20035;-53
2022/09/02 07:54:09;;;;;;;3.03;2.17;;;15.40;99.90;;;;;;5070556;28;20431;-54
2022/09/02 07:56:35;;;;;;;4.85;2.45;;;15.60;99.90;;;;;;5070875;28;20047;-53
2022/09/02 07:59:01;;;;;;;2.92;1.90;;;15.70;99.90;;;;;;5090438;28;20322;-55
2022/09/02 08:01:27;;;;;;;3.55;2.67;;;15.80;99.90;;;;;;5090625;28;20046;-52
2022/09/02 08:03:53;;;;;;;6.00;2.13;;;15.90;99.90;;;;;;5089196;28;20436;-52
2022/09/02 08:06:19;;;;;;;8.52;3.05;;;16.00;99.90;;;;;;5090334;28;20020;-55
2022/09/02 08:08:45;;;;;;;11.32;2.72;;;16.00;99.90;;;;;;5089913;28;20044;-51
2022/09/02 08:11:11;;;;;;;3.72;2.03;;;16.10;99.90;;;;;;5070724;28;20025;-53
2022/09/02 08:13:38;;;;;;;14.75;2.30;;;16.20;99.90;;;;;;5070069;28;20052;-52
2022/09/02 08:16:04;;;;;;;5.30;1.85;;;16.30;99.90;;;;;;5069008;28;20450;-52
2022/09/02 08:18:32;;;;;;;6.72;3.33;;;16.40;99.90;;;;;;5070079;28;20037;-51
2022/09/02 08:20:58;;;;;;;5.65;2.15;;;16.60;99.90;;;;;;5070131;28;20017;-53
2022/09/02 08:23:23;;;;;;;6.07;5.28;;;16.70;99.90;;;;;;5070011;28;20383;-51
2022/09/02 08:25:49;;;;;;;3.33;2.15;;;16.80;99.90;;;;;;5070022;28;20024;-52
2022/09/02 08:28:15;;;;;;;3.45;1.92;;;16.80;99.90;;;;;;5069922;28;20422;-52
2022/09/02 08:30:40;;;;;;;12.40;2.08;;;16.90;99.90;;;;;;5070118;28;20024;-53
2022/09/02 08:33:06;;;;;;;7.32;1.63;;;17.00;99.90;;;;;;5070289;28;20029;-53
2022/09/02 08:35:32;;;;;;;20.60;2.28;;;17.10;99.90;;;;;;5071175;28;20105;-53
2022/09/02 08:37:58;;;;;;;2.83;1.95;;;17.10;99.90;;;;;;5071337;28;20020;-54
2022/09/02 08:40:35;;;;;;;4.00;1.75;;;17.30;99.90;;;;;;5088358;28;20016;-53
2022/09/02 08:43:06;;;;;;;5.28;1.70;;;17.30;99.60;;;;;;5091149;28;20030;-53
2022/09/02 08:45:36;;;;;;;2.03;1.42;;;17.30;99.10;;;;;;5095017;28;20020;-52
2022/09/02 08:48:09;;;;;;;3.10;1.98;;;17.20;99.60;;;;;;5092708;28;20356;-52
2022/09/02 08:50:39;;;;;;;2.17;1.92;;;17.40;99.90;;;;;;5093881;28;20057;-51
2022/09/02 08:53:31;;;;;;;1.92;1.55;;;17.60;99.90;;;;;;5093704;28;20047;-53
2022/09/02 08:55:58;;;;;;;7.00;2.15;;;17.80;98.60;;;;;;5094140;28;20024;-51
2022/09/02 08:58:27;;;;;;;3.63;1.52;;;17.80;99.70;;;;;;5092404;28;20387;-52
2022/09/02 09:01:09;;;;;;;8.30;1.70;;;17.90;98.20;;;;;;5094202;28;20039;-52
2022/09/02 09:04:11;;;;;;;3.10;1.75;;;18.20;98.30;;;;;;5093747;28;20096;-51
2022/09/02 09:06:58;;;;;;;4.20;1.55;;;18.00;97.10;;;;;;5093625;28;20016;-52
2022/09/02 09:09:32;;;;;;;6.05;1.63;;;18.00;97.20;;;;;;5079973;28;20044;-53
2022/09/02 09:12:19;;;;;;;2.58;1.40;;;18.10;97.20;;;;;;5072040;28;20036;-51
2022/09/02 09:14:54;;;;;;;4.80;1.40;;;18.40;96.50;;;;;;5073490;28;20036;-52
2022/09/02 09:17:53;;;;;;;2.97;1.55;;;18.50;97.30;;;;;;5073338;28;20048;-52
2022/09/02 09:20:23;;;;;;;3.22;1.33;;;18.70;96.20;;;;;;5073266;28;20032;-52
2022/09/02 09:22:55;;;;;;;3.15;1.40;;;18.90;95.60;;;;;;5073593;28;20392;-52
2022/09/02 09:25:28;;;;;;;2.40;1.42;;;19.10;96.00;;;;;;5073235;28;20415;-52
2022/09/02 09:28:00;;;;;;;2.70;1.45;;;19.00;95.30;;;;;;5073295;28;20074;-51
2022/09/02 09:30:27;;;;;;;5.18;1.67;;;19.10;94.00;;;;;;5072998;28;20502;-53
2022/09/02 09:32:56;;;;;;;1.98;1.30;;;19.40;95.10;;;;;;5072942;28;20046;-52
2022/09/02 09:35:23;;;;;;;6.18;1.85;;;19.40;95.20;;;;;;5072729;28;20376;-53
2022/09/02 09:37:54;;;;;;;3.63;1.77;;;19.70;94.40;;;;;;5077132;28;20020;-51
2022/09/02 09:40:22;;;;;;;7.13;1.30;;;19.60;94.20;;;;;;5092666;28;20028;-54
2022/09/02 09:43:11;;;;;;;3.78;1.60;;;19.90;92.30;;;;;;5094374;28;20016;-50
2022/09/02 09:45:45;;;;;;;2.88;1.60;;;19.60;93.20;;;;;;5093784;28;20031;-55
2022/09/02 09:48:21;;;;;;;4.15;1.30;;;19.70;93.30;;;;;;5094240;28;20039;-52
2022/09/02 09:51:12;;;;;;;1.85;1.27;;;19.60;92.90;;;;;;5094155;28;20020;-51
2022/09/02 09:53:38;;;;;;;4.20;1.10;;;19.50;91.80;;;;;;5093845;28;20040;-50
2022/09/02 09:56:12;;;;;;;5.10;1.23;;;19.90;91.40;;;;;;5092950;28;20059;-55
2022/09/02 09:58:38;;;;;;;2.35;0.93;;;19.80;90.20;;;;;;5093990;28;20056;-52
2022/09/02 10:01:24;;;;;;;4.13;1.42;;;19.80;89.90;;;;;;5093668;28;20490;-49
2022/09/02 10:03:51;;;;;;;3.63;1.58;;;20.00;88.30;;;;;;5093582;28;20024;-53
2022/09/02 10:06:23;;;;;;;6.00;1.33;;;20.00;89.10;;;;;;5063392;28;20042;-54
2022/09/02 10:09:00;;;;;;;4.90;1.40;;;20.40;91.40;;;;;;5062506;28;20109;-50
2022/09/02 10:11:35;;;;;;;4.45;1.40;;;20.50;90.10;;;;;;5062377;28;20032;-52
2022/09/02 10:14:07;;;;;;;4.00;1.80;;;21.00;90.80;;;;;;5062807;28;20377;-56
2022/09/02 10:16:41;;;;;;;3.63;1.10;;;20.80;89.20;;;;;;5062516;28;20032;-51
2022/09/02 10:19:29;;;;;;;4.07;1.50;;;21.00;89.30;;;;;;5062454;28;20497;-51
2022/09/02 10:22:13;;;;;;;1.65;1.10;;;21.00;89.40;;;;;;5062459;28;22264;-55
2022/09/02 10:25:06;;;;;;;2.63;0.82;;;21.30;87.00;;;;;;5060704;28;20111;-53
2022/09/02 10:27:47;;;;;;;1.30;1.20;;;21.30;83.00;;;;;;5062084;28;20028;-50
2022/09/02 10:30:23;;;;;;;4.97;0.98;;;21.30;83.10;;;;;;5062326;28;20025;-50
2022/09/02 10:33:16;;;;;;;3.83;1.08;;;21.10;82.10;;;;;;5061241;28;20051;-52
2022/09/02 10:35:47;;;;;;;4.07;1.13;;;21.30;83.60;;;;;;5062712;28;20122;-51
2022/09/02 10:38:31;;;;;;;3.05;1.13;;;21.50;84.30;;;;;;5062914;28;20029;-53
2022/09/02 10:41:02;;;;;;;;;;;21.70;84.50;;;;;;5062552;28;20361;-53
2022/09/02 10:43:40;;;;;;;1.25;0.90;;;21.40;81.10;;;;;;5061611;28;19915;-53
2022/09/02 10:46:09;;;;;;;1.23;0.80;;;21.50;82.40;;;;;;5062541;28;20048;-54
2022/09/02 10:48:41;;;;;;;2.55;1.05;;;21.70;83.60;;;;;;5062054;28;20039;-52
2022/09/02 10:51:28;;;;;;;1.95;1.40;;;22.00;81.50;;;;;;5061959;28;20122;-55
2022/09/02 10:54:22;;;;;;;3.60;1.17;;;21.90;81.90;;;;;;5061679;28;20102;-54
2022/09/02 10:56:54;;;;;;;2.25;1.40;;;21.90;77.60;;;;;;5061752;28;20430;-54
2022/09/02 10:59:29;;;;;;;3.95;1.00;;;22.00;79.40;;;;;;5061004;28;20024;-51
2022/09/02 11:02:21;;;;;;;2.13;1.15;;;22.10;80.30;;;;;;5061484;28;20029;-53
2022/09/02 11:04:59;;;;;;;1.70;0.90;;;22.30;77.50;;;;;;5059010;28;20036;-52
2022/09/02 11:07:36;;;;;;;4.00;1.15;;;22.30;76.00;;;;;;5061889;28;20052;-55
2022/09/02 11:10:10;;;;;;;4.00;1.10;;;22.40;77.10;;;;;;5061980;28;20345;-54
2022/09/02 11:12:40;;;;;;;2.63;1.10;;;22.20;75.00;;;;;;5061222;28;20028;-54
2022/09/02 11:15:15;;;;;;;1.17;1.00;;;22.40;76.50;;;;;;5061396;28;20028;-55
2022/09/02 11:18:12;;;;;;;3.38;0.95;;;23.00;74.70;;;;;;5061372;28;20021;-54
2022/09/02 11:20:57;;;;;;;1.77;0.90;;;23.90;72.80;;;;;;5061165;28;20078;-52
2022/09/02 11:23:51;;;;;;;4.32;0.73;;;24.90;69.80;;;;;;5061620;28;20051;-55
2022/09/02 11:27:15;;;;;;;2.03;0.90;;;25.60;66.70;;;;;;5061156;28;20040;-55
2022/09/02 11:29:54;;;;;;;1.23;0.90;;;27.00;64.20;;;;;;4996588;28;20129;-52
2022/09/02 11:32:40;;;;;;;2.00;0.80;;;27.50;59.40;;;;;;5061551;28;20028;-54
2022/09/02 11:35:12;;;;;;;2.58;0.80;;;27.90;57.70;;;;;;5060749;28;20554;-54
2022/09/02 11:38:22;;;;;;;3.15;0.80;;;27.90;53.60;;;;;;5068370;28;20418;-51
2022/09/02 11:41:08;;;;;;;14.50;0.90;;;27.80;54.90;;;;;;5046436;28;20649;-55
2022/09/02 11:43:46;;;;;;;2.15;0.60;;;28.80;53.30;;;;;;5049236;28;20108;-54
2022/09/02 11:46:24;;;;;;;4.85;0.88;;;28.40;52.70;;;;;;5081086;28;20382;-56
2022/09/02 11:49:01;;;;;;;3.22;1.05;;;28.60;52.90;;;;;;5080781;28;20020;-57
2022/09/02 11:51:45;;;;;;;2.17;0.80;;;28.70;51.60;;;;;;5078015;28;20129;-53
2022/09/02 11:54:15;;;;;;;1.05;0.65;;;29.70;49.30;;;;;;5061399;28;20033;-56
2022/09/02 11:56:44;;;;;;;0.68;0.50;;;29.20;48.40;;;;;;5080537;28;20070;-52
2022/09/02 11:59:51;;;;;;;4.65;0.52;;;29.70;49.50;;;;;;5060712;28;20101;-56
2022/09/02 12:02:35;;;;;;;1.40;0.98;;;29.20;49.20;;;;;;5064980;28;20025;-55
2022/09/02 12:05:28;;;;;;;4.38;0.93;;;29.50;47.90;;;;;;5071117;28;20029;-54
2022/09/02 12:07:55;;;;;;;1.17;0.63;;;29.70;49.60;;;;;;5087311;28;20040;-54
2022/09/02 12:10:46;;;;;;;1.63;0.57;;;30.70;46.30;;;;;;5091550;28;20036;-54
2022/09/02 12:13:37;;;;;;;1.05;0.57;;;29.80;44.60;;;;;;5090754;28;20039;-54
2022/09/02 12:16:28;;;;;;;1.42;0.50;;;30.20;45.60;;;;;;5091629;28;20039;-52
2022/09/02 12:18:54;;;;;;;2.78;0.75;;;30.00;47.60;;;;;;5083780;28;20466;-57
2022/09/02 12:21:21;;;;;;;1.15;0.50;;;31.00;45.20;;;;;;5091470;28;20036;-52
2022/09/02 12:23:56;;;;;;;1.17;0.47;;;30.30;43.70;;;;;;5073103;28;20012;-56
2022/09/02 12:26:35;;;;;;;3.75;0.90;;;30.00;44.10;;;;;;5069948;28;20028;-55
2022/09/02 12:29:18;;;;;;;4.60;0.90;;;30.50;45.40;;;;;;5071264;28;20032;-55
2022/09/02 12:31:46;;;;;;;1.23;0.52;;;30.60;45.30;;;;;;5071339;28;20031;-55
2022/09/02 12:34:32;;;;;;;1.02;0.70;;;30.20;45.50;;;;;;5071540;28;20434;-54
2022/09/02 12:36:58;;;;;;;5.93;0.85;;;30.70;44.60;;;;;;5059985;28;20049;-51
2022/09/02 12:39:26;;;;;;;3.85;0.82;;;30.20;44.80;;;;;;5069505;28;20476;-53
2022/09/02 12:42:06;;;;;;;4.68;0.68;;;31.10;44.60;;;;;;5070101;28;20012;-54
2022/09/02 12:44:53;;;;;;;5.50;0.98;;;30.50;43.90;;;;;;5069890;28;20032;-54
2022/09/02 12:47:18;;;;;;;8.10;0.80;;;30.70;43.10;;;;;;5069921;28;20073;-56
2022/09/02 12:49:50;;;;;;;1.35;0.80;;;30.50;43.60;;;;;;5069818;28;20293;-52
2022/09/02 12:52:34;;;;;;;2.15;0.68;;;30.30;44.50;;;;;;5069664;28;20079;-55
2022/09/02 12:55:22;;;;;;;0.82;0.60;;;30.10;43.00;;;;;;5069834;28;20029;-53
2022/09/02 12:57:50;;;;;;;1.95;0.77;;;29.60;45.60;;;;;;5065229;28;20060;-56
2022/09/02 13:00:47;;;;;;;1.50;0.60;;;30.40;44.00;;;;;;5049670;28;20104;-56
2022/09/02 13:03:30;;;;;;;6.82;0.70;;;31.20;42.80;;;;;;5049802;28;20522;-55
2022/09/02 13:06:19;;;;;;;1.13;0.50;;;32.00;43.40;;;;;;5049519;28;20025;-55
2022/09/02 13:09:11;;;;;;;0.82;0.60;;;32.30;41.70;;;;;;5049416;28;20041;-54